createdAt,value
2022-11-12T00:01:21.613Z,87.07
2022-11-12T00:06:21.561Z,87.07
2022-11-12T00:11:21.523Z,87.48
2022-11-12T00:16:21.471Z,88.14
2022-11-12T00:21:21.571Z,87.83
2022-11-12T00:26:21.462Z,88.45
2022-11-12T00:31:21.299Z,88.96
2022-11-12T00:36:21.224Z,88.39
2022-11-12T00:41:21.194Z,89.28
2022-11-12T00:46:21.114Z,88.70
2022-11-12T00:51:21.144Z,89.11
2022-11-12T00:56:21.041Z,88.59
2022-11-12T01:01:21.179Z,88.53
2022-11-12T01:06:21.062Z,88.43
2022-11-12T01:11:20.859Z,88.53
2022-11-12T01:16:20.797Z,89.09
2022-11-12T01:21:20.771Z,89.15
2022-11-12T01:26:20.685Z,89.61
2022-11-12T01:31:20.662Z,89.29
2022-11-12T01:36:20.679Z,90.43
2022-11-12T01:41:20.670Z,89.92
2022-11-12T01:46:20.611Z,89.03
2022-11-12T01:51:20.565Z,89.03
2022-11-12T01:56:20.352Z,90.58
2022-11-12T02:01:20.333Z,91.36
2022-11-12T02:06:20.327Z,90.53
2022-11-12T02:11:20.265Z,90.33
2022-11-12T02:16:20.139Z,89.92
2022-11-12T02:21:20.273Z,89.40
2022-11-12T02:26:20.230Z,89.34
2022-11-12T02:31:21.161Z,90.47
2022-11-12T02:36:19.948Z,89.75
2022-11-12T02:41:19.883Z,89.69
2022-11-12T02:46:19.820Z,89.79
2022-11-12T02:51:19.778Z,89.59
2022-11-12T02:56:19.884Z,89.52
2022-11-12T03:01:19.842Z,89.73
2022-11-12T03:06:19.729Z,90.14
2022-11-12T03:11:19.551Z,90.14
2022-11-12T03:16:19.517Z,90.14
2022-11-12T03:21:19.448Z,90.14
2022-11-12T03:26:19.407Z,90.14
2022-11-12T03:31:19.323Z,91.17
2022-11-12T03:36:19.273Z,90.56
2022-11-12T03:41:19.399Z,90.77
2022-11-12T03:46:19.352Z,90.66
2022-11-12T03:51:19.285Z,90.66
2022-11-12T03:56:19.066Z,90.45
2022-11-12T04:01:19.099Z,90.50
2022-11-12T04:06:18.956Z,90.66
2022-11-12T04:11:19.094Z,90.87
2022-11-12T04:16:18.984Z,90.97
2022-11-12T04:21:19.481Z,90.91
2022-11-12T04:26:20.201Z,90.70
2022-11-12T04:31:20.028Z,90.70
2022-11-12T04:36:26.109Z,90.44
2022-11-12T04:41:20.914Z,90.33
2022-11-12T04:46:21.487Z,90.47
2022-11-12T04:51:18.853Z,90.78
2022-11-12T04:56:22.731Z,91.09
2022-11-12T05:01:18.605Z,90.78
2022-11-12T05:06:18.945Z,90.89
2022-11-12T05:11:18.936Z,91.30
2022-11-12T05:16:55.260Z,91.36
2022-11-12T05:21:19.631Z,91.78
2022-11-12T05:26:23.719Z,92.15
2022-11-12T05:31:19.034Z,91.53
2022-11-12T05:36:24.612Z,90.64
2022-11-12T05:41:20.379Z,91.36
2022-11-12T05:46:19.343Z,91.26
2022-11-12T05:51:27.382Z,91.47
2022-11-12T05:56:41.468Z,90.95
2022-11-12T06:01:19.783Z,90.99
2022-11-12T06:06:20.099Z,90.99
2022-11-12T06:11:20.204Z,91.09
2022-11-12T06:16:17.577Z,91.51
2022-11-12T06:21:17.781Z,91.61
2022-11-12T06:26:17.538Z,92.03
2022-11-12T06:31:17.568Z,91.41
2022-11-12T06:36:17.462Z,91.30
2022-11-12T06:42:36.760Z,91.14
2022-11-12T06:47:50.795Z,91.51
2022-11-12T06:52:35.285Z,91.82
2022-11-12T06:57:35.448Z,92.40
2022-11-12T07:02:36.291Z,91.78
2022-11-12T07:07:35.333Z,90.64
2022-11-12T07:12:35.095Z,91.74
2022-11-12T07:17:35.078Z,91.22
2022-11-12T07:22:35.146Z,90.70
2022-11-12T07:27:34.988Z,91.11
2022-11-12T07:32:40.113Z,91.53
2022-11-12T07:37:35.861Z,91.32
2022-11-12T07:42:34.937Z,91.59
2022-11-12T07:47:35.889Z,90.50
2022-11-12T07:52:34.730Z,90.60
2022-11-12T07:57:34.659Z,90.87
2022-11-12T08:02:34.754Z,91.38
2022-11-12T08:07:34.773Z,91.34
2022-11-12T08:12:34.563Z,91.20
2022-11-12T08:17:34.416Z,91.05
2022-11-12T08:22:34.418Z,90.49
2022-11-12T08:27:34.367Z,89.73
2022-11-12T08:32:34.883Z,89.48
2022-11-12T08:37:34.278Z,89.07
2022-11-12T08:42:34.297Z,88.20
2022-11-12T08:47:34.467Z,88.37
2022-11-12T08:52:35.287Z,87.19
2022-11-12T08:57:35.082Z,86.29
2022-11-12T09:02:34.721Z,84.56
2022-11-12T09:07:49.542Z,83.56
2022-11-12T09:12:34.792Z,82.26
2022-11-12T09:17:33.863Z,80.74
2022-11-12T09:22:33.906Z,79.44
2022-11-12T09:27:34.844Z,76.81
2022-11-12T09:32:33.625Z,75.21
2022-11-12T09:37:33.773Z,74.63
2022-11-12T09:42:34.702Z,73.47
2022-11-12T09:47:33.461Z,72.92
2022-11-12T09:52:33.403Z,69.70
2022-11-12T09:57:33.346Z,69.46
2022-11-12T10:02:33.284Z,68.18
2022-11-12T10:07:33.261Z,65.80
2022-11-12T10:12:33.167Z,66.55
2022-11-12T10:17:33.121Z,66.12
2022-11-12T10:22:41.903Z,63.85
2022-11-12T10:27:32.980Z,63.21
2022-11-12T10:32:33.004Z,62.37
2022-11-12T10:37:32.932Z,62.37
2022-11-12T10:42:32.799Z,62.45
2022-11-12T10:47:32.730Z,61.51
2022-11-12T10:52:32.713Z,60.59
2022-11-12T10:57:32.699Z,60.49
2022-11-12T11:02:32.569Z,58.20
2022-11-12T11:07:32.597Z,60.06
2022-11-12T11:12:32.461Z,60.84
2022-11-12T11:17:32.543Z,59.32
2022-11-12T11:22:32.367Z,59.52
2022-11-12T11:27:32.514Z,59.42
2022-11-12T11:32:37.236Z,59.29
2022-11-12T11:37:33.203Z,58.38
2022-11-12T11:42:32.243Z,58.69
2022-11-12T11:47:50.507Z,58.86
2022-11-12T11:52:33.022Z,58.05
2022-11-12T11:57:31.979Z,54.91
2022-11-12T12:02:32.002Z,56.10
2022-11-12T12:07:31.947Z,52.36
2022-11-12T12:12:31.883Z,55.09
2022-11-12T12:17:32.844Z,52.16
2022-11-12T12:22:31.699Z,51.63
2022-11-12T12:27:31.635Z,52.87
2022-11-12T12:32:31.584Z,56.10
2022-11-12T12:37:31.575Z,57.14
2022-11-12T12:42:31.508Z,55.55
2022-11-12T12:47:31.460Z,54.82
2022-11-12T12:52:31.385Z,57.24
2022-11-12T12:57:31.349Z,57.87
2022-11-12T13:02:31.272Z,57.29
2022-11-12T13:07:31.250Z,54.94
2022-11-12T13:12:31.146Z,54.84
2022-11-12T13:17:31.210Z,56.86
2022-11-12T13:22:31.130Z,57.29
2022-11-12T13:27:31.057Z,57.80
2022-11-12T13:32:31.005Z,57.60
2022-11-12T13:37:30.899Z,57.80
2022-11-12T13:42:30.837Z,57.60
2022-11-12T13:47:30.792Z,56.66
2022-11-12T13:52:30.767Z,56.76
2022-11-12T13:57:30.759Z,56.89
2022-11-12T14:02:30.650Z,56.79
2022-11-12T14:07:30.600Z,54.66
2022-11-12T14:12:30.525Z,56.18
2022-11-12T14:17:30.454Z,57.22
2022-11-12T14:22:30.393Z,57.42
2022-11-12T14:27:30.358Z,57.96
2022-11-12T14:32:30.269Z,57.65
2022-11-12T14:37:30.335Z,57.32
2022-11-12T14:42:30.268Z,58.97
2022-11-12T14:47:30.219Z,59.81
2022-11-12T14:52:30.049Z,59.70
2022-11-12T14:57:30.000Z,60.21
2022-11-12T15:02:42.632Z,60.82
2022-11-12T15:07:30.917Z,59.84
2022-11-12T15:12:29.839Z,58.95
2022-11-12T15:17:29.792Z,58.11
2022-11-12T15:22:29.742Z,59.99
2022-11-12T15:27:29.719Z,60.13
2022-11-12T15:32:29.669Z,60.20
2022-11-12T15:37:29.582Z,60.46
2022-11-12T15:42:29.561Z,60.15
2022-11-12T15:47:29.508Z,61.71
2022-11-12T15:52:29.440Z,62.45
2022-11-12T15:57:29.393Z,62.24
2022-11-12T16:02:29.297Z,63.19
2022-11-12T16:07:29.280Z,63.32
2022-11-12T16:12:29.283Z,64.14
2022-11-12T16:17:29.218Z,64.67
2022-11-12T16:22:38.050Z,66.30
2022-11-12T16:27:29.065Z,66.13
2022-11-12T16:32:29.003Z,66.88
2022-11-12T16:37:30.039Z,67.52
2022-11-12T16:42:28.900Z,67.65
2022-11-12T16:47:28.887Z,67.04
2022-11-12T16:52:28.787Z,67.14
2022-11-12T16:57:28.841Z,67.27
2022-11-12T17:02:28.704Z,67.89
2022-11-12T17:07:28.641Z,68.74
2022-11-12T17:12:28.601Z,69.15
2022-11-12T17:17:28.548Z,68.05
2022-11-12T17:22:28.521Z,67.37
2022-11-12T17:27:28.525Z,68.39
2022-11-12T17:32:28.362Z,69.21
2022-11-12T17:37:28.282Z,69.96
2022-11-12T17:42:28.332Z,71.73
2022-11-12T17:47:28.181Z,72.24
2022-11-12T17:52:28.246Z,72.78
2022-11-12T17:57:28.079Z,73.50
2022-11-12T18:02:28.018Z,74.02
2022-11-12T18:07:27.984Z,73.71
2022-11-12T18:12:27.921Z,73.81
2022-11-12T18:17:27.967Z,74.77
2022-11-12T18:22:27.901Z,75.69
2022-11-12T18:27:27.829Z,75.38
2022-11-12T18:32:27.770Z,75.18
2022-11-12T18:37:27.699Z,75.62
2022-11-12T18:42:27.597Z,76.14
2022-11-12T18:47:27.513Z,76.10
2022-11-12T18:52:27.461Z,76.65
2022-11-12T18:57:27.525Z,76.65
2022-11-12T19:02:27.447Z,77.26
2022-11-12T19:07:27.334Z,76.95
2022-11-12T19:12:27.289Z,77.61
2022-11-12T19:17:31.056Z,78.32
2022-11-12T19:22:27.226Z,77.71
2022-11-12T19:27:27.101Z,75.62
2022-11-12T19:32:27.046Z,74.80
2022-11-12T19:37:33.863Z,73.33
2022-11-12T19:42:28.010Z,72.52
2022-11-12T19:47:26.894Z,69.68
2022-11-12T19:52:26.904Z,68.93
2022-11-12T19:57:26.777Z,68.84
2022-11-12T20:02:26.825Z,69.96
2022-11-12T20:07:26.690Z,69.75
2022-11-12T20:12:26.703Z,70.81
2022-11-12T20:17:26.583Z,73.06
2022-11-12T20:22:31.641Z,74.32
2022-11-12T20:27:28.536Z,76.24
2022-11-12T20:32:26.431Z,76.78
2022-11-12T20:37:26.440Z,78.02
2022-11-12T20:42:26.507Z,78.56
2022-11-12T20:47:26.537Z,78.16
2022-11-12T20:52:27.968Z,78.25
2022-11-12T20:57:28.366Z,76.82
2022-11-12T21:03:57.149Z,75.45
2022-11-12T21:09:02.990Z,68.45
2022-11-12T21:13:58.684Z,68.62
2022-11-12T21:18:56.400Z,74.39
2022-11-12T21:23:58.347Z,76.27
2022-11-12T21:28:57.802Z,75.28
2022-11-12T21:33:56.722Z,73.71
2022-11-12T21:38:56.219Z,68.96
2022-11-12T21:43:56.326Z,67.43
2022-11-12T21:49:03.176Z,66.06
2022-11-12T21:53:55.885Z,66.78
2022-11-12T21:58:58.254Z,65.86
2022-11-12T22:03:55.693Z,63.91
2022-11-12T22:08:55.986Z,64.62
2022-11-12T22:13:58.922Z,65.07
2022-11-12T22:18:59.704Z,69.61
2022-11-12T22:24:03.944Z,69.74
2022-11-12T22:28:55.313Z,70.36
2022-11-12T22:33:55.249Z,69.57
2022-11-12T22:38:55.175Z,69.26
2022-11-12T22:43:55.136Z,71.28
2022-11-12T22:48:55.206Z,69.98
2022-11-12T22:53:55.135Z,70.84
2022-11-12T22:58:55.064Z,71.66
2022-11-12T23:03:55.024Z,72.72
2022-11-12T23:08:54.847Z,73.33
2022-11-12T23:13:54.795Z,73.33
2022-11-12T23:18:54.744Z,72.61
2022-11-12T23:23:54.683Z,72.31
2022-11-12T23:28:54.641Z,72.10
2022-11-12T23:33:54.749Z,73.02
2022-11-12T23:38:54.687Z,73.13
2022-11-12T23:43:54.541Z,72.82
2022-11-12T23:48:54.414Z,73.33
2022-11-12T23:53:54.349Z,74.40
2022-11-12T23:58:54.312Z,74.80
